createdAt,value
2024-05-09T00:00:58.019Z,7.40
2024-05-09T00:04:58.007Z,8.10
2024-05-09T00:08:57.827Z,8.20
2024-05-09T00:12:58.186Z,9.00
2024-05-09T00:16:57.923Z,9.40
2024-05-09T00:20:58.239Z,8.80
2024-05-09T00:24:57.951Z,8.50
2024-05-09T00:28:58.081Z,8.90
2024-05-09T00:32:58.115Z,9.00
2024-05-09T00:36:58.042Z,9.20
2024-05-09T00:44:58.134Z,9.30
2024-05-09T00:48:58.006Z,10.10
2024-05-09T00:52:58.617Z,10.30
2024-05-09T00:56:58.048Z,10.00
2024-05-09T01:00:58.945Z,10.30
2024-05-09T01:04:58.091Z,10.80
2024-05-09T01:08:58.276Z,11.00
2024-05-09T01:12:58.040Z,11.30
2024-05-09T01:16:58.433Z,10.90
2024-05-09T01:20:58.141Z,10.90
2024-05-09T01:24:58.364Z,10.40
2024-05-09T01:28:58.203Z,10.50
2024-05-09T01:32:58.308Z,10.80
2024-05-09T01:36:58.098Z,10.10
2024-05-09T01:40:58.305Z,10.70
2024-05-09T01:44:58.112Z,10.60
2024-05-09T01:52:58.437Z,10.10
2024-05-09T01:56:58.184Z,9.80
2024-05-09T02:00:58.346Z,9.50
2024-05-09T02:04:58.300Z,10.30
2024-05-09T02:08:58.253Z,9.60
2024-05-09T02:12:58.242Z,9.70
2024-05-09T02:16:58.262Z,9.90
2024-05-09T02:20:58.250Z,9.80
2024-05-09T02:24:58.473Z,9.10
2024-05-09T02:28:58.663Z,9.30
2024-05-09T02:36:58.450Z,9.30
2024-05-09T02:40:58.336Z,8.60
2024-05-09T02:44:58.363Z,9.00
2024-05-09T02:48:58.425Z,8.10
2024-05-09T02:52:58.444Z,9.10
2024-05-09T03:00:58.607Z,8.70
2024-05-09T03:04:58.456Z,8.10
2024-05-09T03:08:59.758Z,8.60
2024-05-09T03:16:58.488Z,7.90
2024-05-09T03:20:58.462Z,7.90
2024-05-09T03:24:58.532Z,8.00
2024-05-09T03:28:58.464Z,7.70
2024-05-09T03:32:58.762Z,8.10
2024-05-09T03:40:58.573Z,7.50
2024-05-09T03:44:58.468Z,7.70
2024-05-09T03:48:58.632Z,7.50
2024-05-09T03:52:58.544Z,7.50
2024-05-09T04:00:58.840Z,8.10
2024-05-09T04:04:58.558Z,7.70
2024-05-09T04:08:58.868Z,8.50
2024-05-09T04:12:58.540Z,8.30
2024-05-09T04:16:58.653Z,8.70
2024-05-09T04:20:58.622Z,8.30
2024-05-09T04:24:58.719Z,8.60
2024-05-09T04:28:58.650Z,9.00
2024-05-09T04:32:58.992Z,8.80
2024-05-09T04:36:58.776Z,9.40
2024-05-09T04:40:58.854Z,9.60
2024-05-09T04:44:58.956Z,8.70
2024-05-09T04:48:58.762Z,9.20
2024-05-09T04:52:58.794Z,9.30
2024-05-09T04:56:58.946Z,8.90
2024-05-09T05:00:58.686Z,9.30
2024-05-09T05:04:58.885Z,9.10
2024-05-09T05:16:58.754Z,9.90
2024-05-09T05:20:58.992Z,10.70
2024-05-09T05:24:58.877Z,10.30
2024-05-09T05:28:58.962Z,10.10
2024-05-09T05:36:58.909Z,10.70
2024-05-09T05:40:58.928Z,10.60
2024-05-09T05:44:58.995Z,10.70
2024-05-09T05:48:58.968Z,10.70
2024-05-09T05:52:59.001Z,10.60
2024-05-09T05:56:58.970Z,9.90
2024-05-09T06:00:58.963Z,9.90
2024-05-09T06:04:58.953Z,10.30
2024-05-09T06:08:59.055Z,10.40
2024-05-09T06:20:59.153Z,10.40
2024-05-09T06:24:59.067Z,10.10
2024-05-09T06:29:00.043Z,10.40
2024-05-09T06:32:59.232Z,9.30
2024-05-09T06:36:58.978Z,9.80
2024-05-09T06:40:59.059Z,9.40
2024-05-09T06:44:59.213Z,9.40
2024-05-09T06:49:03.086Z,9.30
2024-05-09T06:52:59.253Z,9.30
2024-05-09T06:56:59.156Z,9.80
2024-05-09T07:01:00.277Z,9.90
2024-05-09T07:04:59.265Z,10.10
2024-05-09T07:08:59.041Z,9.30
2024-05-09T07:12:59.289Z,9.50
2024-05-09T07:16:59.208Z,8.90
2024-05-09T07:20:59.207Z,9.20
2024-05-09T07:24:59.084Z,8.50
2024-05-09T07:29:06.772Z,8.30
2024-05-09T07:32:59.540Z,8.70
2024-05-09T07:37:00.891Z,8.10
2024-05-09T07:40:59.229Z,7.90
2024-05-09T07:45:14.845Z,8.50
2024-05-09T07:50:35.812Z,8.40
2024-05-09T07:56:59.407Z,7.50
2024-05-09T08:01:01.398Z,7.20
2024-05-09T08:04:59.312Z,6.80
2024-05-09T08:09:05.112Z,6.30
2024-05-09T08:12:59.411Z,7.00
2024-05-09T08:16:59.630Z,5.60
2024-05-09T08:20:59.433Z,6.50
2024-05-09T08:24:59.459Z,7.00
2024-05-09T08:28:59.260Z,7.00
2024-05-09T08:32:59.432Z,7.00
2024-05-09T08:37:03.811Z,7.00
2024-05-09T08:41:03.156Z,6.20
2024-05-09T08:44:59.410Z,6.80
2024-05-09T08:49:02.522Z,6.40
2024-05-09T08:52:59.376Z,6.00
2024-05-09T08:57:00.077Z,6.10
2024-05-09T09:01:02.925Z,5.80
2024-05-09T09:05:04.532Z,5.60
2024-05-09T09:09:00.178Z,4.90
2024-05-09T09:13:03.075Z,4.70
2024-05-09T09:16:59.434Z,5.40
2024-05-09T09:20:59.702Z,5.50
2024-05-09T09:24:59.977Z,4.20
2024-05-09T09:29:00.641Z,4.10
2024-05-09T09:32:59.538Z,2.80
2024-05-09T09:37:03.580Z,4.30
2024-05-09T09:41:00.405Z,3.90
2024-05-09T09:45:05.145Z,3.30
2024-05-09T09:48:59.793Z,3.00
2024-05-09T09:53:00.040Z,4.10
2024-05-09T09:57:00.055Z,4.40
2024-05-09T10:00:59.733Z,3.80
2024-05-09T10:04:59.706Z,3.30
2024-05-09T10:09:00.291Z,3.40
2024-05-09T10:13:02.442Z,3.80
2024-05-09T10:17:04.020Z,4.20
2024-05-09T10:20:59.841Z,4.30
2024-05-09T10:25:05.220Z,4.10
2024-05-09T10:29:09.095Z,3.80
2024-05-09T10:32:59.876Z,4.40
2024-05-09T10:41:00.020Z,3.80
2024-05-09T10:45:00.913Z,4.30
2024-05-09T10:53:01.717Z,4.70
2024-05-09T10:56:59.889Z,4.20
2024-05-09T11:05:00.676Z,3.90
2024-05-09T11:08:59.930Z,4.10
2024-05-09T11:12:59.969Z,4.00
2024-05-09T11:17:00.500Z,4.20
2024-05-09T11:20:59.953Z,4.10
2024-05-09T11:25:00.047Z,3.30
2024-05-09T11:28:59.901Z,3.60
2024-05-09T11:33:00.166Z,3.20
2024-05-09T11:37:00.191Z,3.40
2024-05-09T11:41:00.472Z,3.20
2024-05-09T11:45:00.188Z,3.30
2024-05-09T11:49:00.079Z,3.40
2024-05-09T11:52:59.911Z,2.90
2024-05-09T11:57:00.093Z,3.20
2024-05-09T12:01:00.833Z,3.40
2024-05-09T12:04:59.984Z,3.30
2024-05-09T12:09:00.080Z,3.20
2024-05-09T12:12:59.985Z,2.80
2024-05-09T12:17:02.637Z,2.70
2024-05-09T12:21:00.257Z,3.20
2024-05-09T12:25:03.619Z,3.00
2024-05-09T12:29:00.208Z,3.30
2024-05-09T12:33:00.310Z,3.40
2024-05-09T12:37:00.296Z,3.20
2024-05-09T12:45:00.169Z,3.00
2024-05-09T12:49:00.380Z,2.80
2024-05-09T12:53:00.486Z,2.60
2024-05-09T12:57:00.085Z,2.10
2024-05-09T13:01:00.393Z,2.40
2024-05-09T13:05:00.221Z,1.90
2024-05-09T13:09:00.295Z,1.90
2024-05-09T13:13:01.441Z,1.80
2024-05-09T13:17:00.570Z,1.90
2024-05-09T13:21:00.133Z,2.30
2024-05-09T13:25:00.465Z,1.90
2024-05-09T13:29:00.187Z,2.20
2024-05-09T13:33:00.412Z,2.40
2024-05-09T13:37:00.302Z,1.90
2024-05-09T13:41:00.299Z,1.50
2024-05-09T13:45:00.252Z,1.40
2024-05-09T13:49:00.604Z,1.20
2024-05-09T13:53:00.290Z,1.20
2024-05-09T13:57:00.381Z,1.30
2024-05-09T14:01:00.380Z,1.10
2024-05-09T14:09:03.473Z,1.00
2024-05-09T14:13:00.463Z,1.20
2024-05-09T14:17:00.624Z,1.30
2024-05-09T14:21:01.057Z,1.10
2024-05-09T14:25:00.467Z,1.10
2024-05-09T14:29:00.404Z,1.20
2024-05-09T14:33:00.611Z,1.40
2024-05-09T14:37:00.639Z,1.10
2024-05-09T14:41:00.646Z,1.10
2024-05-09T14:45:01.028Z,1.20
2024-05-09T14:49:00.662Z,1.10
2024-05-09T14:53:00.400Z,1.50
2024-05-09T14:57:00.551Z,1.10
2024-05-09T15:01:00.630Z,1.20
2024-05-09T15:05:02.306Z,1.30
2024-05-09T15:09:00.804Z,1.30
2024-05-09T15:13:00.924Z,1.40
2024-05-09T15:17:00.630Z,1.50
2024-05-09T15:21:01.040Z,1.80
2024-05-09T15:25:00.513Z,1.60
2024-05-09T15:29:00.657Z,1.30
2024-05-09T15:33:02.211Z,1.20
2024-05-09T15:37:02.622Z,1.30
2024-05-09T15:41:00.636Z,1.30
2024-05-09T15:45:00.710Z,1.30
2024-05-09T15:49:01.159Z,1.50
2024-05-09T15:53:00.615Z,1.30
2024-05-09T15:57:00.715Z,1.50
2024-05-09T16:01:00.872Z,1.30
2024-05-09T16:05:00.782Z,1.30
2024-05-09T16:09:01.349Z,1.40
2024-05-09T16:13:01.053Z,1.30
2024-05-09T16:17:00.917Z,1.10
2024-05-09T16:21:00.688Z,1.00
2024-05-09T16:25:00.750Z,1.00
2024-05-09T16:29:00.960Z,1.10
2024-05-09T16:33:00.973Z,1.40
2024-05-09T16:37:01.046Z,1.30
2024-05-09T16:41:00.980Z,1.00
2024-05-09T16:45:00.756Z,1.30
2024-05-09T16:49:01.569Z,1.30
2024-05-09T16:53:01.019Z,1.20
2024-05-09T16:57:01.333Z,2.00
2024-05-09T17:01:00.919Z,1.00
2024-05-09T17:05:01.215Z,1.10
2024-05-09T17:13:01.346Z,1.80
2024-05-09T17:21:01.169Z,1.20
2024-05-09T17:25:01.043Z,1.00
2024-05-09T17:29:01.600Z,1.10
2024-05-09T17:33:01.657Z,1.40
2024-05-09T17:37:01.206Z,1.10
2024-05-09T17:41:00.953Z,1.00
2024-05-09T17:45:01.172Z,1.20
2024-05-09T17:49:01.635Z,0.90
2024-05-09T17:53:01.668Z,1.10
2024-05-09T17:57:01.248Z,1.30
2024-05-09T18:01:01.314Z,1.10
2024-05-09T18:05:01.370Z,1.00
2024-05-09T18:09:01.172Z,1.10
2024-05-09T18:13:01.103Z,0.90
2024-05-09T18:21:01.303Z,1.00
2024-05-09T18:25:01.188Z,1.20
2024-05-09T18:29:01.872Z,1.00
2024-05-09T18:33:01.400Z,1.20
2024-05-09T18:37:04.326Z,1.40
2024-05-09T18:41:01.365Z,1.10
2024-05-09T18:45:01.166Z,1.00
2024-05-09T18:49:01.252Z,1.00
2024-05-09T18:53:01.768Z,1.20
2024-05-09T18:57:01.234Z,1.20
2024-05-09T19:01:02.067Z,1.20
2024-05-09T19:05:01.302Z,1.40
2024-05-09T19:09:01.492Z,1.20
2024-05-09T19:13:02.837Z,1.20
2024-05-09T19:17:01.420Z,1.20
2024-05-09T19:21:01.187Z,1.10
2024-05-09T19:25:01.488Z,1.50
2024-05-09T19:29:01.305Z,1.30
2024-05-09T19:33:01.385Z,1.30
2024-05-09T19:37:01.458Z,1.30
2024-05-09T19:41:01.452Z,1.20
2024-05-09T19:45:01.297Z,1.40
2024-05-09T19:49:02.241Z,1.30
2024-05-09T19:53:01.331Z,1.20
2024-05-09T19:57:02.109Z,1.40
2024-05-09T20:01:01.456Z,1.50
2024-05-09T20:05:02.719Z,1.30
2024-05-09T20:09:01.409Z,1.20
2024-05-09T20:13:02.111Z,1.50
2024-05-09T20:17:01.414Z,1.20
2024-05-09T20:21:01.731Z,1.20
2024-05-09T20:25:01.439Z,1.40
2024-05-09T20:29:01.574Z,1.40
2024-05-09T20:33:03.235Z,1.80
2024-05-09T20:37:01.598Z,1.50
2024-05-09T20:41:01.498Z,1.60
2024-05-09T20:45:01.703Z,1.80
2024-05-09T20:49:01.595Z,1.50
2024-05-09T20:53:02.046Z,1.70
2024-05-09T20:57:01.898Z,1.60
2024-05-09T21:01:01.702Z,1.60
2024-05-09T21:05:01.755Z,2.00
2024-05-09T21:09:01.590Z,1.60
2024-05-09T21:13:02.893Z,1.70
2024-05-09T21:17:01.742Z,1.60
2024-05-09T21:21:01.542Z,1.60
2024-05-09T21:25:01.761Z,1.90
2024-05-09T21:29:01.930Z,1.50
2024-05-09T21:33:01.725Z,2.10
2024-05-09T21:37:01.902Z,1.60
2024-05-09T21:41:01.699Z,1.60
2024-05-09T21:45:01.958Z,1.90
2024-05-09T21:49:02.209Z,1.70
2024-05-09T21:53:01.749Z,1.80
2024-05-09T21:57:04.316Z,2.00
2024-05-09T22:01:04.105Z,2.00
2024-05-09T22:05:01.986Z,2.00
2024-05-09T22:09:04.009Z,2.10
2024-05-09T22:13:02.050Z,2.10
2024-05-09T22:17:01.818Z,2.20
2024-05-09T22:21:01.816Z,1.90
2024-05-09T22:25:01.797Z,2.30
2024-05-09T22:29:02.145Z,2.10
2024-05-09T22:33:01.879Z,2.10
2024-05-09T22:37:02.384Z,2.10
2024-05-09T22:41:04.863Z,2.00
2024-05-09T22:45:01.963Z,2.10
2024-05-09T22:49:01.932Z,2.10
2024-05-09T22:53:02.059Z,2.20
2024-05-09T22:57:02.008Z,2.30
2024-05-09T23:01:02.080Z,2.10
2024-05-09T23:05:02.109Z,2.10
2024-05-09T23:09:01.915Z,2.10
2024-05-09T23:13:02.605Z,2.70
2024-05-09T23:17:02.960Z,2.80
2024-05-09T23:21:01.854Z,2.30
2024-05-09T23:25:02.415Z,2.70
2024-05-09T23:29:02.559Z,2.80
2024-05-09T23:33:02.703Z,3.10
2024-05-09T23:37:02.095Z,2.70
2024-05-09T23:41:02.611Z,2.60
2024-05-09T23:45:02.324Z,3.30
2024-05-09T23:49:02.195Z,3.60
2024-05-09T23:53:02.062Z,3.40
2024-05-09T23:57:02.027Z,4.70
